This is the latest recevied weather packets stored in our database for station/object KR8N. If no packets are shown the sender has not sent any weather packets the latest 1 day(s).
| Time | Temp. | Humidity | Pressure | Rain* | Wind** | Luminosity | Snow |
|---|---|---|---|---|---|---|---|
| 1778024205 | 20.56° C | 36% | 1013.9 hPa | 0 mm | 0 m/s | 19 W/m² | - |
| 1778023903 | 20.56° C | 33% | 1013.9 hPa | 0 mm | 1.79 m/s, 358° | 33 W/m² | - |
| 1778023600 | 20.56° C | 36% | 1013.8 hPa | 0 mm | 0.45 m/s, 101° | 39 W/m² | - |
| 1778023297 | 21.11° C | 35% | 1013.6 hPa | 0 mm | 0 m/s | 45 W/m² | - |
| 1778022994 | 21.11° C | 35% | 1014 hPa | 0 mm | 0.89 m/s, 149° | 38 W/m² | - |
| 1778022693 | 21.11° C | 35% | 1013.9 hPa | 0 mm | 0.89 m/s, 338° | 38 W/m² | - |
| 1778022391 | 21.11° C | 37% | 1013.8 hPa | 0 mm | 0.89 m/s, 27° | 47 W/m² | - |
| 1778022086 | 21.11° C | 34% | 1013.9 hPa | 0 mm | 0.45 m/s, 104° | 51 W/m² | - |
| 1778021783 | 21.67° C | 34% | 1013.9 hPa | 0 mm | 0 m/s | 57 W/m² | - |
| 1778021479 | 21.67° C | 33% | 1014.1 hPa | 0 mm | 0.89 m/s, 130° | 62 W/m² | - |
| 1778021176 | 21.67° C | 35% | 1014.1 hPa | 0 mm | 0.45 m/s, 56° | 85 W/m² | - |
| 1778020874 | 21.67° C | 33% | 1014 hPa | 0 mm | 0.45 m/s, 122° | 84 W/m² | - |
| 1778020571 | 22.22° C | 31% | 1014 hPa | 0 mm | 2.68 m/s, 184° | 81 W/m² | - |
| 1778020267 | 22.22° C | 33% | 1014 hPa | 0 mm | 0.45 m/s, 114° | 121 W/m² | - |
| 1778019963 | 22.22° C | 34% | 1013.7 hPa | 0 mm | 0.45 m/s, 91° | 175 W/m² | - |
| 1778019659 | 22.78° C | 33% | 1014 hPa | 0 mm | 0.45 m/s, 136° | 130 W/m² | - |
| 1778019357 | 23.33° C | 30% | 1014 hPa | 0 mm | 1.79 m/s, 207° | 146 W/m² | - |
| 1778019053 | 22.78° C | 33% | 1014 hPa | 0 mm | 0.89 m/s, 128° | 287 W/m² | - |
| 1778018750 | 22.22° C | 32% | 1014 hPa | 0 mm | 0.45 m/s, 147° | 197 W/m² | - |
| 1778018448 | 22.22° C | 32% | 1013.9 hPa | 0 mm | 0.89 m/s, 2° | 140 W/m² | - |
| 1778018146 | 22.22° C | 31% | 1013.8 hPa | 0 mm | 0.89 m/s, 260° | 153 W/m² | - |
| 1778017843 | 22.22° C | 31% | 1014.1 hPa | 0 mm | 1.34 m/s, 191° | 176 W/m² | - |
| 1778017541 | 22.22° C | 30% | 1014.1 hPa | 0 mm | 1.79 m/s, 177° | 200 W/m² | - |
| 1778017238 | 22.22° C | 32% | 1014.1 hPa | 0 mm | 0.45 m/s, 257° | 186 W/m² | - |
| 1778016936 | 22.78° C | 31% | 1014 hPa | 0 mm | 0.89 m/s, 193° | 152 W/m² | - |
* Rain latest hour (hover to see other rain measurements)
** Current wind speed in m/s (hover to see current wind gust speed)